Time;durP1;ratioP1;P1;durP2;ratioP2;P2;SDS_P1;SDS_P2;PMS_P1;PMS_P2;Temp;Humidity;BMP_temperature;BMP_pressure;BME280_temperature;BME280_humidity;BME280_pressure;Samples;Min_cycle;Max_cycle;Signal;HPM_P1;HPM_P2
2021/04/25 00:01:05;;;;;;;4.30;3.15;;;;;;;8.43;45.69;96816.56;5073537;28;20052;-74
2021/04/25 00:03:31;;;;;;;4.80;3.00;;;;;;;8.39;45.81;96822.38;5073874;28;20043;-75
2021/04/25 00:05:58;;;;;;;4.60;3.20;;;;;;;8.34;46.17;96825.56;5072998;28;20055;-74
2021/04/25 00:08:24;;;;;;;4.30;2.88;;;;;;;8.31;46.25;96821.50;5072939;28;20047;-75
2021/04/25 00:10:50;;;;;;;4.80;3.00;;;;;;;8.28;46.47;96824.53;5074004;28;20053;-76
2021/04/25 00:13:17;;;;;;;3.60;3.30;;;;;;;8.24;46.57;96825.91;5073795;28;20111;-74
2021/04/25 00:15:43;;;;;;;6.53;3.33;;;;;;;8.20;46.84;96824.69;5072447;28;20037;-74
2021/04/25 00:18:09;;;;;;;4.07;3.00;;;;;;;8.20;47.10;96818.66;5073806;28;20052;-74
2021/04/25 00:20:35;;;;;;;3.50;2.63;;;;;;;8.18;47.34;96803.16;5073404;28;20476;-75
2021/04/25 00:23:02;;;;;;;4.10;3.00;;;;;;;8.21;47.43;96807.19;5073547;28;20496;-76
2021/04/25 00:25:28;;;;;;;3.85;2.90;;;;;;;8.14;47.45;96809.78;5073440;28;20036;-75
2021/04/25 00:27:55;;;;;;;3.38;2.83;;;;;;;8.08;47.54;96807.94;5073767;28;20044;-75
2021/04/25 00:30:22;;;;;;;4.20;2.85;;;;;;;8.03;47.69;96815.56;5073966;28;20084;-74
2021/04/25 00:32:49;;;;;;;4.35;2.95;;;;;;;7.96;47.99;96809.47;5073346;28;20070;-76
2021/04/25 00:35:17;;;;;;;9.40;3.38;;;;;;;7.89;48.04;96818.06;5073162;28;20060;-75
2021/04/25 00:37:44;;;;;;;5.03;3.35;;;;;;;7.86;48.17;96807.22;5073665;28;20036;-75
2021/04/25 00:40:18;;;;;;;5.38;3.22;;;;;;;7.78;48.26;96802.94;5062439;28;20048;-76
2021/04/25 00:42:45;;;;;;;3.75;2.47;;;;;;;7.72;48.58;96806.31;5072467;28;20045;-77
2021/04/25 00:45:16;;;;;;;3.22;2.70;;;;;;;7.67;49.45;96804.28;5072802;28;20051;-77
2021/04/25 00:47:44;;;;;;;5.03;3.13;;;;;;;7.63;49.05;96808.25;5073289;28;20032;-75
2021/04/25 00:50:12;;;;;;;5.05;2.80;;;;;;;7.61;49.20;96809.47;5073538;28;20037;-75
2021/04/25 00:52:44;;;;;;;4.70;3.40;;;;;;;7.58;49.81;96797.59;5073657;28;20048;-76
2021/04/25 00:55:12;;;;;;;3.13;2.80;;;;;;;7.57;49.50;96795.19;5073494;28;20024;-76
2021/04/25 00:57:40;;;;;;;4.93;3.13;;;;;;;7.56;49.54;96798.75;5073166;28;20040;-76
2021/04/25 01:00:09;;;;;;;4.40;2.80;;;;;;;7.51;49.71;96791.50;5072717;28;20041;-76
2021/04/25 01:02:36;;;;;;;3.05;2.72;;;;;;;7.50;49.68;96802.97;5072768;28;20037;-74
2021/04/25 01:05:05;;;;;;;2.45;2.25;;;;;;;7.48;49.98;96804.94;5072921;28;20477;-76
2021/04/25 01:07:31;;;;;;;3.85;3.13;;;;;;;7.48;50.05;96810.97;5073375;28;20048;-77
2021/04/25 01:09:57;;;;;;;4.47;3.10;;;;;;;7.49;50.14;96811.78;5072016;28;20036;-77
2021/04/25 01:12:23;;;;;;;4.25;3.40;;;;;;;7.46;50.15;96809.56;5071852;28;20037;-77
2021/04/25 01:14:50;;;;;;;3.55;2.85;;;;;;;7.47;50.41;96813.75;5072810;28;20036;-75
2021/04/25 01:17:17;;;;;;;3.05;2.80;;;;;;;7.48;50.62;96821.41;5072817;28;20057;-75
2021/04/25 01:19:43;;;;;;;3.25;2.95;;;;;;;7.48;50.56;96816.19;5072758;28;20051;-75
2021/04/25 01:22:09;;;;;;;4.28;3.30;;;;;;;7.46;50.39;96822.59;5072987;28;20052;-75
2021/04/25 01:24:36;;;;;;;3.30;2.63;;;;;;;7.44;50.53;96830.59;5072827;28;20044;-76
2021/04/25 01:27:03;;;;;;;3.40;3.10;;;;;;;7.43;50.66;96829.00;5072909;28;20041;-76
2021/04/25 01:29:29;;;;;;;5.47;3.53;;;;;;;7.41;50.75;96823.16;5071997;28;20045;-79
2021/04/25 01:31:55;;;;;;;3.55;3.25;;;;;;;7.39;50.96;96825.16;5072977;28;20067;-77
2021/04/25 01:34:22;;;;;;;3.40;3.08;;;;;;;7.36;50.98;96829.94;5074638;28;20040;-76
2021/04/25 01:36:48;;;;;;;4.82;3.10;;;;;;;7.34;51.19;96824.09;5076448;28;20044;-78
2021/04/25 01:39:14;;;;;;;3.42;3.13;;;;;;;7.37;51.20;96824.53;5076902;28;20044;-76
2021/04/25 01:41:40;;;;;;;6.30;3.33;;;;;;;7.35;51.11;96828.31;5076583;28;20393;-73
2021/04/25 01:44:07;;;;;;;4.70;2.67;;;;;;;7.31;51.34;96833.91;5076544;28;20044;-76
2021/04/25 01:46:33;;;;;;;3.80;2.70;;;;;;;7.25;51.32;96837.28;5076227;28;20040;-74
2021/04/25 01:49:00;;;;;;;4.20;3.08;;;;;;;7.19;51.46;96832.78;5076490;28;20033;-77
2021/04/25 01:51:26;;;;;;;5.13;2.75;;;;;;;7.15;51.50;96841.19;5076606;28;20039;-77
2021/04/25 01:53:52;;;;;;;5.00;3.08;;;;;;;7.11;51.63;96844.16;5076382;28;20041;-75
2021/04/25 01:56:19;;;;;;;3.50;3.20;;;;;;;7.10;51.81;96847.75;5076421;28;20028;-76
2021/04/25 01:58:45;;;;;;;4.78;3.05;;;;;;;7.08;51.81;96849.75;5076397;28;20044;-75
2021/04/25 02:01:11;;;;;;;4.63;2.95;;;;;;;7.04;51.92;96843.28;5076624;28;20033;-76
2021/04/25 02:03:38;;;;;;;4.18;3.03;;;;;;;7.02;51.87;96844.47;5076439;28;20432;-76
2021/04/25 02:06:04;;;;;;;3.42;2.80;;;;;;;6.97;52.05;96849.41;5076063;28;20045;-75
2021/04/25 02:08:31;;;;;;;4.32;3.17;;;;;;;6.92;52.10;96847.38;5076303;28;20040;-75
2021/04/25 02:10:57;;;;;;;3.70;2.75;;;;;;;6.86;52.23;96853.31;5075512;28;20519;-76
2021/04/25 02:13:23;;;;;;;4.05;3.30;;;;;;;6.80;52.34;96846.22;5076095;28;20052;-76
2021/04/25 02:15:49;;;;;;;4.22;2.83;;;;;;;6.77;52.63;96838.78;5076463;28;20028;-75
2021/04/25 02:18:16;;;;;;;4.72;3.38;;;;;;;6.73;52.71;96834.94;5074877;28;20044;-75
2021/04/25 02:20:43;;;;;;;3.22;2.85;;;;;;;6.69;52.74;96835.28;5075805;28;20037;-75
2021/04/25 02:23:09;;;;;;;4.63;2.90;;;;;;;6.69;52.92;96832.69;5075877;28;20048;-75
2021/04/25 02:25:35;;;;;;;4.43;3.50;;;;;;;6.62;52.86;96831.81;5075717;28;20055;-75
2021/04/25 02:28:01;;;;;;;3.33;2.88;;;;;;;6.57;53.08;96823.72;5075719;28;20048;-75
2021/04/25 02:30:31;;;;;;;3.95;2.97;;;;;;;6.54;53.29;96826.69;5075524;28;20396;-75
2021/04/25 02:32:58;;;;;;;2.65;2.40;;;;;;;6.54;53.40;96821.50;5076177;28;20048;-75
2021/04/25 02:35:26;;;;;;;3.10;2.78;;;;;;;6.55;53.35;96822.28;5075630;28;20055;-75
2021/04/25 02:37:54;;;;;;;6.18;3.10;;;;;;;6.50;53.59;96823.66;5075771;28;20040;-75
2021/04/25 02:40:24;;;;;;;3.97;3.42;;;;;;;6.43;53.80;96825.38;5074552;28;20373;-75
2021/04/25 02:42:51;;;;;;;3.88;3.28;;;;;;;6.33;53.63;96822.25;5075377;28;20044;-75
2021/04/25 02:45:19;;;;;;;4.40;3.20;;;;;;;6.24;53.90;96825.94;5074615;28;20400;-75
2021/04/25 02:48:00;;;;;;;4.20;3.25;;;;;;;6.18;54.46;96826.66;5075222;28;20481;-75
2021/04/25 02:50:33;;;;;;;3.60;3.30;;;;;;;6.11;54.23;96826.59;5075592;28;20040;-75
2021/04/25 02:52:59;;;;;;;4.07;3.05;;;;;;;6.11;54.53;96829.19;5075278;28;20035;-75
2021/04/25 02:55:26;;;;;;;7.63;3.40;;;;;;;6.11;54.33;96829.19;5075531;28;20059;-76
2021/04/25 02:57:52;;;;;;;3.53;2.88;;;;;;;6.11;54.60;96823.97;5074118;28;20032;-75
2021/04/25 03:00:23;;;;;;;3.28;2.97;;;;;;;6.10;54.72;96820.53;5075600;28;20032;-75
2021/04/25 03:02:49;;;;;;;4.68;3.33;;;;;;;6.09;54.54;96826.75;5074624;28;20044;-76
2021/04/25 03:05:16;;;;;;;5.18;3.50;;;;;;;6.04;54.66;96829.06;5075205;28;20461;-75
2021/04/25 03:07:45;;;;;;;3.60;3.30;;;;;;;6.02;55.30;96825.84;5075180;28;20036;-75
2021/04/25 03:10:13;;;;;;;4.40;3.30;;;;;;;6.02;55.22;96820.63;5075528;28;20041;-76
2021/04/25 03:12:39;;;;;;;4.78;3.25;;;;;;;6.02;54.97;96822.44;5075316;28;20392;-76
2021/04/25 03:15:08;;;;;;;3.63;3.25;;;;;;;5.97;55.17;96820.38;5075021;28;20037;-75
2021/04/25 03:17:35;;;;;;;4.20;3.20;;;;;;;5.98;55.25;96813.38;5074576;28;20416;-76
2021/04/25 03:20:06;;;;;;;4.68;3.08;;;;;;;5.95;55.39;96811.94;5075146;28;20037;-76
2021/04/25 03:22:33;;;;;;;5.05;3.70;;;;;;;5.94;55.51;96809.47;5074950;28;20036;-75
2021/04/25 03:25:00;;;;;;;3.58;2.92;;;;;;;5.94;55.43;96802.47;5074884;28;20491;-75
2021/04/25 03:27:26;;;;;;;6.05;3.53;;;;;;;5.91;55.63;96792.44;5073538;28;20039;-75
2021/04/25 03:29:53;;;;;;;4.20;3.80;;;;;;;5.92;55.57;96793.22;5074676;28;20044;-75
2021/04/25 03:32:19;;;;;;;4.00;3.60;;;;;;;5.91;55.62;96800.22;5074852;28;20094;-75
2021/04/25 03:34:45;;;;;;;3.80;3.17;;;;;;;5.84;55.72;96802.75;5074645;28;20478;-75
2021/04/25 03:37:11;;;;;;;3.65;3.25;;;;;;;5.81;55.69;96810.09;5074559;28;20041;-75
2021/04/25 03:39:38;;;;;;;3.50;3.17;;;;;;;5.79;55.96;96814.66;5074406;28;20037;-75
2021/04/25 03:42:05;;;;;;;3.83;3.50;;;;;;;5.75;56.11;96811.59;5074651;28;20033;-75
2021/04/25 03:44:31;;;;;;;6.15;3.28;;;;;;;5.74;56.04;96810.00;5074368;28;20032;-76
2021/04/25 03:46:58;;;;;;;4.50;3.83;;;;;;;5.74;56.17;96806.59;5074414;28;20053;-75
2021/04/25 03:49:24;;;;;;;5.30;3.60;;;;;;;5.74;56.23;96810.00;5074716;28;20043;-75
2021/04/25 03:51:52;;;;;;;5.80;3.80;;;;;;;5.77;56.48;96807.03;5074127;28;20037;-75
2021/04/25 03:54:18;;;;;;;5.13;3.60;;;;;;;5.75;56.27;96814.22;5074344;28;20472;-75
2021/04/25 03:56:45;;;;;;;3.95;3.17;;;;;;;5.71;56.33;96802.53;5073875;28;20500;-75
2021/04/25 03:59:11;;;;;;;3.83;3.53;;;;;;;5.61;56.47;96812.41;5073543;28;20051;-75
2021/04/25 04:01:37;;;;;;;3.90;3.60;;;;;;;5.56;56.69;96804.31;5074569;28;20036;-75
2021/04/25 04:04:04;;;;;;;6.32;3.65;;;;;;;5.56;56.76;96807.72;5074013;28;20040;-75
2021/04/25 04:06:31;;;;;;;3.78;3.40;;;;;;;5.57;56.93;96806.75;5074479;28;20043;-75
2021/04/25 04:08:57;;;;;;;4.40;3.10;;;;;;;5.59;56.98;96810.00;5073880;28;20044;-75
2021/04/25 04:11:23;;;;;;;3.95;3.55;;;;;;;5.61;56.98;96813.22;5074018;28;20037;-75
2021/04/25 04:13:49;;;;;;;3.65;3.35;;;;;;;5.63;56.91;96810.47;5072403;28;20041;-75
2021/04/25 04:16:18;;;;;;;3.83;3.47;;;;;;;5.57;57.04;96811.97;5073718;28;20389;-74
2021/04/25 04:18:44;;;;;;;4.38;3.42;;;;;;;5.53;56.98;96818.50;5073899;28;20037;-74
2021/04/25 04:21:10;;;;;;;5.03;3.45;;;;;;;5.54;57.20;96819.31;5073770;28;20042;-74
2021/04/25 04:23:37;;;;;;;4.05;3.70;;;;;;;5.55;57.03;96824.34;5073652;28;20036;-75
2021/04/25 04:26:03;;;;;;;5.80;4.05;;;;;;;5.55;57.19;96824.34;5073657;28;20055;-75
2021/04/25 04:28:29;;;;;;;5.38;3.47;;;;;;;5.53;57.24;96828.91;5073322;28;20044;-75
2021/04/25 04:30:55;;;;;;;4.28;3.08;;;;;;;5.49;57.19;96832.84;5073601;28;20490;-75
2021/04/25 04:33:21;;;;;;;7.05;3.90;;;;;;;5.45;57.02;96836.78;5073410;28;20044;-75
2021/04/25 04:35:48;;;;;;;3.92;3.53;;;;;;;5.35;57.10;96839.63;5073253;28;20047;-75
2021/04/25 04:38:15;;;;;;;6.35;3.20;;;;;;;5.30;57.42;96839.34;5073675;28;20040;-75
2021/04/25 04:40:41;;;;;;;4.53;3.90;;;;;;;5.27;57.49;96839.66;5073318;28;20048;-75
2021/04/25 04:43:07;;;;;;;6.75;4.10;;;;;;;5.27;57.54;96837.91;5073705;28;20036;-75
2021/04/25 04:45:33;;;;;;;4.97;3.70;;;;;;;5.29;57.64;96840.31;5073576;28;20039;-74
2021/04/25 04:48:00;;;;;;;4.70;3.45;;;;;;;5.36;58.04;96838.66;5073805;28;20040;-74
2021/04/25 04:50:26;;;;;;;5.50;3.38;;;;;;;5.57;58.15;96839.78;5073352;28;20041;-74
2021/04/25 04:52:52;;;;;;;4.90;3.63;;;;;;;5.90;58.25;96838.47;5073132;28;20032;-75
2021/04/25 04:55:19;;;;;;;4.00;3.58;;;;;;;6.26;57.86;96842.19;5073453;28;20444;-74
2021/04/25 04:57:45;;;;;;;5.40;4.10;;;;;;;6.61;57.73;96842.41;5073204;28;20045;-74
2021/04/25 05:00:12;;;;;;;5.63;3.72;;;;;;;6.91;57.27;96838.75;5072211;28;20047;-75
2021/04/25 05:02:39;;;;;;;4.40;3.85;;;;;;;7.21;56.77;96836.03;5073631;28;20052;-75
2021/04/25 05:05:09;;;;;;;4.38;3.55;;;;;;;7.49;56.48;96830.84;5073134;28;20033;-75
2021/04/25 05:07:35;;;;;;;3.88;3.50;;;;;;;7.80;56.07;96831.47;5073088;28;20036;-75
2021/04/25 05:10:03;;;;;;;4.35;3.95;;;;;;;8.09;55.47;96836.47;5072218;28;20048;-75
2021/04/25 05:12:29;;;;;;;3.72;3.42;;;;;;;8.32;55.26;96830.19;5073345;28;20476;-75
2021/04/25 05:14:55;;;;;;;6.35;3.42;;;;;;;8.60;54.78;96830.13;5073077;28;20032;-75
2021/04/25 05:17:21;;;;;;;4.13;3.40;;;;;;;8.87;54.32;96822.38;5072778;28;20100;-75
2021/04/25 05:19:47;;;;;;;5.15;3.28;;;;;;;9.12;53.83;96830.47;5073141;28;20040;-75
2021/04/25 05:22:14;;;;;;;4.38;3.03;;;;;;;9.44;53.45;96818.41;5073002;28;20040;-75
2021/04/25 05:24:40;;;;;;;4.20;3.78;;;;;;;9.68;52.81;96816.19;5072677;28;20378;-75
2021/04/25 05:27:06;;;;;;;4.68;3.17;;;;;;;9.91;52.39;96808.72;5072946;28;20037;-75
2021/04/25 05:29:33;;;;;;;3.83;3.42;;;;;;;10.13;51.75;96811.09;5072771;28;20043;-75
2021/04/25 05:32:02;;;;;;;4.15;3.75;;;;;;;10.30;50.19;96801.78;5072622;28;20048;-75
2021/04/25 05:34:29;;;;;;;4.68;3.55;;;;;;;10.52;50.62;96798.88;5073095;28;20058;-75
2021/04/25 05:36:55;;;;;;;3.63;3.03;;;;;;;10.71;49.96;96802.44;5072749;28;20045;-75
2021/04/25 05:39:21;;;;;;;4.72;3.65;;;;;;;10.89;49.70;96793.84;5072892;28;20443;-75
2021/04/25 05:41:47;;;;;;;3.53;3.08;;;;;;;11.07;49.14;96795.78;5072772;28;20044;-74
2021/04/25 05:44:14;;;;;;;3.85;2.95;;;;;;;11.25;48.55;96790.56;5073155;28;20044;-74
2021/04/25 05:46:40;;;;;;;3.63;3.00;;;;;;;11.46;48.29;96796.47;5072624;28;20412;-75
2021/04/25 05:49:06;;;;;;;3.25;2.95;;;;;;;11.64;47.63;96795.72;5072927;28;20044;-74
2021/04/25 05:51:32;;;;;;;3.38;3.08;;;;;;;11.65;46.99;96792.06;5072523;28;20470;-75
2021/04/25 05:53:59;;;;;;;5.13;3.58;;;;;;;11.83;46.95;96799.19;5073043;28;20044;-75
2021/04/25 05:56:25;;;;;;;3.65;3.35;;;;;;;11.97;46.29;96790.19;5072671;28;20471;-75
2021/04/25 05:58:51;;;;;;;4.78;3.40;;;;;;;12.10;45.87;96786.63;5072710;28;20033;-75
2021/04/25 06:01:17;;;;;;;4.22;3.83;;;;;;;12.24;45.59;96790.72;5072436;28;20036;-75
2021/04/25 06:03:43;;;;;;;3.50;3.20;;;;;;;12.40;45.13;96789.31;5072609;28;20047;-75
2021/04/25 06:06:10;;;;;;;6.05;3.85;;;;;;;12.56;44.64;96785.28;5072230;28;20047;-75
2021/04/25 06:08:36;;;;;;;5.38;3.35;;;;;;;12.77;44.46;96789.25;5072518;28;20063;-75
2021/04/25 06:11:03;;;;;;;3.95;3.40;;;;;;;13.08;44.00;96796.13;5072321;28;20055;-75
2021/04/25 06:13:29;;;;;;;4.03;3.63;;;;;;;13.32;43.34;96793.56;5071216;28;20036;-75
2021/04/25 06:15:55;;;;;;;4.22;3.33;;;;;;;13.54;42.86;96806.97;5072917;28;20039;-75
2021/04/25 06:18:21;;;;;;;5.75;3.80;;;;;;;13.66;42.58;96810.44;5072653;28;20048;-75
2021/04/25 06:20:48;;;;;;;3.78;3.45;;;;;;;13.88;42.18;96818.59;5074404;28;20048;-75
2021/04/25 06:23:14;;;;;;;5.07;3.50;;;;;;;14.06;41.72;96822.94;5076598;28;20040;-75
2021/04/25 06:25:41;;;;;;;4.20;3.80;;;;;;;14.23;41.39;96823.03;5075891;28;20067;-75
2021/04/25 06:28:07;;;;;;;4.05;3.67;;;;;;;14.40;41.05;96829.22;5076133;28;20048;-75
2021/04/25 06:30:34;;;;;;;4.10;3.40;;;;;;;14.61;40.61;96833.09;5075384;28;20044;-75
2021/04/25 06:33:05;;;;;;;5.65;4.07;;;;;;;14.68;40.07;96835.59;5076053;28;20040;-75
2021/04/25 06:35:31;;;;;;;6.15;4.40;;;;;;;14.65;39.75;96825.50;5075696;28;20409;-75
2021/04/25 06:37:59;;;;;;;4.95;4.40;;;;;;;14.61;39.55;96835.75;5075596;28;20040;-75
2021/04/25 06:40:25;;;;;;;4.78;4.30;;;;;;;14.63;39.31;96835.47;5074253;28;20041;-75
2021/04/25 06:42:52;;;;;;;5.93;3.83;;;;;;;14.70;39.04;96828.25;5075664;28;20039;-75
2021/04/25 06:45:21;;;;;;;4.18;3.72;;;;;;;14.73;38.98;96832.25;5075444;28;20397;-75
2021/04/25 06:47:48;;;;;;;4.90;4.40;;;;;;;14.77;38.74;96836.81;5075448;28;20111;-75
2021/04/25 06:50:15;;;;;;;4.82;4.07;;;;;;;14.86;38.48;96833.81;5075303;28;20028;-75
2021/04/25 06:52:44;;;;;;;4.93;4.00;;;;;;;14.87;38.33;96824.88;5074814;28;20039;-74
2021/04/25 06:55:15;;;;;;;5.45;4.32;;;;;;;14.89;38.27;96825.41;5075188;28;20051;-74
2021/04/25 06:57:46;;;;;;;4.30;3.90;;;;;;;15.00;37.81;96829.84;5075561;28;20028;-74
2021/04/25 07:00:15;;;;;;;5.05;4.20;;;;;;;15.01;37.94;96827.00;5073780;28;20043;-75
2021/04/25 07:02:41;;;;;;;4.13;3.80;;;;;;;15.14;37.89;96836.47;5075435;28;20047;-75
2021/04/25 07:05:10;;;;;;;4.90;4.40;;;;;;;15.32;37.74;96837.28;5075045;28;20024;-75
2021/04/25 07:07:36;;;;;;;6.43;4.43;;;;;;;15.45;37.40;96838.81;5075146;28;20036;-75
2021/04/25 07:10:03;;;;;;;4.65;4.13;;;;;;;15.68;37.45;96838.66;5074739;28;20037;-75
2021/04/25 07:12:29;;;;;;;4.45;3.85;;;;;;;15.93;37.40;96840.13;5074979;28;20404;-75
2021/04/25 07:14:57;;;;;;;6.60;4.57;;;;;;;16.15;36.91;96838.34;5075085;28;20041;-75
2021/04/25 07:17:24;;;;;;;5.22;4.72;;;;;;;16.24;36.61;96844.81;5074845;28;20043;-75
2021/04/25 07:19:50;;;;;;;5.25;4.75;;;;;;;16.20;36.48;96842.91;5075415;28;20044;-75
2021/04/25 07:22:16;;;;;;;6.18;4.60;;;;;;;16.16;36.34;96839.94;5074729;28;20040;-75
2021/04/25 07:24:43;;;;;;;5.50;5.00;;;;;;;16.19;36.56;96842.09;5074802;28;20037;-75
2021/04/25 07:27:10;;;;;;;5.55;4.68;;;;;;;16.21;36.34;96833.91;5074732;28;20041;-75
2021/04/25 07:29:36;;;;;;;5.30;4.28;;;;;;;16.41;36.40;96836.81;5074671;28;20056;-75
2021/04/25 07:32:05;;;;;;;5.75;5.07;;;;;;;16.49;36.02;96835.59;5073458;28;20064;-76
2021/04/25 07:34:31;;;;;;;6.00;5.38;;;;;;;16.51;35.98;96824.78;5074697;28;20053;-75
2021/04/25 07:37:04;;;;;;;5.90;4.50;;;;;;;16.55;35.90;96831.19;5074818;28;20052;-75
2021/04/25 07:39:32;;;;;;;6.20;4.70;;;;;;;16.62;35.83;96837.09;5074364;28;20361;-75
2021/04/25 07:41:59;;;;;;;5.35;4.80;;;;;;;16.82;35.85;96839.22;5074608;28;20044;-75
2021/04/25 07:44:26;;;;;;;7.20;5.30;;;;;;;16.94;35.58;96834.56;5074018;28;20051;-75
2021/04/25 07:46:52;;;;;;;6.30;4.80;;;;;;;16.80;35.12;96842.09;5074920;28;20392;-75
2021/04/25 07:49:19;;;;;;;4.70;4.30;;;;;;;16.94;35.30;96836.41;5073749;28;20052;-75
2021/04/25 07:51:46;;;;;;;7.70;4.65;;;;;;;16.98;35.13;96835.66;5074260;28;20396;-75
2021/04/25 07:54:12;;;;;;;5.32;4.70;;;;;;;17.15;35.06;96832.91;5072953;28;20036;-75
2021/04/25 07:56:39;;;;;;;4.68;4.15;;;;;;;17.11;34.69;96834.47;5074055;28;20055;-75
2021/04/25 07:59:07;;;;;;;5.90;4.55;;;;;;;17.18;34.85;96824.47;5074189;28;20063;-75
2021/04/25 08:01:40;;;;;;;6.45;4.82;;;;;;;17.31;34.52;96825.13;5073958;28;20048;-75
2021/04/25 08:04:14;;;;;;;4.43;4.00;;;;;;;17.39;34.39;96825.47;5074148;28;20374;-75
2021/04/25 08:06:41;;;;;;;5.90;4.65;;;;;;;17.36;34.28;96822.50;5074136;28;20040;-75
2021/04/25 08:09:08;;;;;;;5.40;4.10;;;;;;;17.42;34.50;96816.19;5073709;28;20055;-74
2021/04/25 08:11:34;;;;;;;3.95;3.30;;;;;;;17.70;34.69;96824.91;5073817;28;20397;-74
2021/04/25 08:14:00;;;;;;;5.18;4.68;;;;;;;18.05;34.21;96819.06;5073663;28;20048;-73
2021/04/25 08:16:27;;;;;;;5.05;4.55;;;;;;;18.16;33.78;96823.38;5073805;28;20036;-75
2021/04/25 08:18:56;;;;;;;7.57;5.00;;;;;;;18.28;33.57;96820.53;5073705;28;20041;-75
2021/04/25 08:21:30;;;;;;;22.15;5.30;;;;;;;18.23;32.96;96821.31;5073773;28;20036;-75
2021/04/25 08:23:57;;;;;;;6.10;4.38;;;;;;;18.20;33.54;96827.13;5061500;28;20036;-75
2021/04/25 08:26:24;;;;;;;5.30;4.43;;;;;;;18.12;33.33;96834.75;5073556;28;20040;-75
2021/04/25 08:28:51;;;;;;;5.75;5.03;;;;;;;17.97;33.33;96838.91;5072942;28;20101;-75
2021/04/25 08:31:17;;;;;;;4.05;3.63;;;;;;;17.83;33.40;96837.78;5073201;28;20122;-75
2021/04/25 08:33:46;;;;;;;5.40;4.47;;;;;;;17.91;33.57;96839.16;5073405;28;20053;-75
2021/04/25 08:36:14;;;;;;;7.18;4.97;;;;;;;17.96;33.25;96841.84;5073300;28;20037;-75
2021/04/25 08:38:42;;;;;;;6.45;5.10;;;;;;;18.15;33.30;96840.38;5073337;28;20040;-75
2021/04/25 08:41:13;;;;;;;5.78;4.75;;;;;;;18.44;33.14;96832.84;5073421;28;20055;-75
2021/04/25 08:43:42;;;;;;;5.65;5.03;;;;;;;18.55;32.67;96831.00;5073799;28;20041;-75
2021/04/25 08:46:10;;;;;;;4.53;4.13;;;;;;;18.41;32.53;96833.34;5073419;28;20043;-75
2021/04/25 08:48:36;;;;;;;5.38;4.35;;;;;;;18.28;32.59;96838.31;5073190;28;20036;-75
2021/04/25 08:51:03;;;;;;;5.22;4.78;;;;;;;18.10;32.89;96829.75;5073200;28;20045;-75
2021/04/25 08:53:31;;;;;;;5.00;4.45;;;;;;;18.00;32.69;96840.28;5073257;28;20044;-75
2021/04/25 08:55:57;;;;;;;5.82;5.13;;;;;;;17.86;32.82;96831.94;5071910;28;20036;-75
2021/04/25 08:58:23;;;;;;;5.28;4.78;;;;;;;17.69;32.90;96841.88;5072647;28;20495;-75
2021/04/25 09:00:50;;;;;;;5.40;4.90;;;;;;;17.54;32.96;96829.31;5071564;28;20047;-75
2021/04/25 09:03:16;;;;;;;4.85;4.10;;;;;;;17.46;33.11;96833.22;5071574;28;20041;-75
2021/04/25 09:05:44;;;;;;;4.00;3.30;;;;;;;17.60;33.42;96833.59;5073058;28;20041;-76
2021/04/25 09:08:10;;;;;;;3.67;3.30;;;;;;;18.01;33.35;96832.03;5073384;28;20400;-77
2021/04/25 09:10:41;;;;;;;5.40;4.38;;;;;;;18.37;33.37;96836.75;5071667;28;20035;-77
2021/04/25 09:13:20;;;;;;;7.28;4.53;;;;;;;18.50;33.05;96830.19;5072053;28;20029;-77
2021/04/25 09:15:47;;;;;;;5.57;3.95;;;;;;;18.69;32.80;96833.19;5060961;28;20029;-77
2021/04/25 09:18:14;;;;;;;5.55;4.22;;;;;;;18.94;32.73;96827.19;5073275;28;20041;-75
2021/04/25 09:20:45;;;;;;;4.35;3.92;;;;;;;19.05;32.46;96826.97;5072631;28;20480;-77
2021/04/25 09:23:32;;;;;;;4.97;4.00;;;;;;;19.34;31.85;96817.69;5072887;28;20040;-78
2021/04/25 09:26:04;;;;;;;4.57;4.15;;;;;;;19.60;31.90;96823.81;5065895;28;20059;-77
2021/04/25 09:28:31;;;;;;;5.80;4.47;;;;;;;19.33;31.30;96824.06;5061251;28;20028;-77
2021/04/25 09:30:58;;;;;;;4.38;3.95;;;;;;;19.12;31.71;96831.22;5072327;28;20055;-77
2021/04/25 09:33:27;;;;;;;5.07;3.67;;;;;;;19.31;31.73;96815.56;5073263;28;20048;-77
2021/04/25 09:35:56;;;;;;;4.75;4.15;;;;;;;19.43;31.48;96813.44;5071150;28;20040;-75
2021/04/25 09:38:23;;;;;;;6.38;4.50;;;;;;;19.26;31.21;96819.03;5072521;28;20473;-76
2021/04/25 09:40:51;;;;;;;4.35;3.95;;;;;;;19.00;31.42;96816.31;5071514;28;20043;-75
2021/04/25 09:43:40;;;;;;;4.85;4.22;;;;;;;18.87;31.28;96819.47;5072523;28;20059;-75
2021/04/25 09:46:06;;;;;;;4.85;4.43;;;;;;;18.87;31.60;96822.13;5072822;28;20388;-75
2021/04/25 09:48:35;;;;;;;5.25;4.63;;;;;;;18.73;31.22;96820.97;5071391;28;20400;-75
2021/04/25 09:51:29;;;;;;;5.07;4.57;;;;;;;18.46;31.77;96825.41;5072544;28;20037;-76
2021/04/25 09:54:05;;;;;;;6.07;4.30;;;;;;;18.33;31.69;96822.41;5072408;28;20048;-75
2021/04/25 09:56:31;;;;;;;6.43;4.55;;;;;;;18.19;31.87;96828.19;5074630;28;20032;-75
2021/04/25 09:58:57;;;;;;;5.07;4.57;;;;;;;18.21;32.05;96817.31;5075972;28;20036;-75
2021/04/25 10:01:28;;;;;;;4.60;4.20;;;;;;;18.28;31.93;96827.69;5075901;28;20401;-75
2021/04/25 10:03:54;;;;;;;5.32;4.65;;;;;;;18.27;31.94;96829.56;5057880;28;20381;-75
2021/04/25 10:06:22;;;;;;;5.13;4.50;;;;;;;18.26;32.04;96828.75;5075979;28;20048;-75
2021/04/25 10:08:50;;;;;;;5.28;4.75;;;;;;;18.45;31.92;96831.75;5075689;28;20051;-75
2021/04/25 10:11:22;;;;;;;4.45;4.05;;;;;;;18.60;32.10;96823.06;5076228;28;20049;-75
2021/04/25 10:13:49;;;;;;;4.95;4.40;;;;;;;18.70;31.88;96832.13;5074584;28;20032;-76
2021/04/25 10:16:17;;;;;;;8.88;5.00;;;;;;;18.68;31.70;96824.41;5076018;28;20036;-75
2021/04/25 10:18:44;;;;;;;5.28;4.78;;;;;;;18.47;31.47;96823.53;5075784;28;20036;-75
2021/04/25 10:21:11;;;;;;;4.68;4.20;;;;;;;18.41;31.44;96825.38;5075438;28;20051;-75
2021/04/25 10:23:37;;;;;;;4.70;4.30;;;;;;;18.26;31.06;96814.69;5057927;28;20040;-75
2021/04/25 10:26:16;;;;;;;5.53;4.20;;;;;;;18.24;31.28;96811.47;5075671;28;20041;-75
2021/04/25 10:29:00;;;;;;;4.85;4.35;;;;;;;18.31;31.30;96812.06;5075546;28;20032;-75
2021/04/25 10:31:30;;;;;;;4.95;4.45;;;;;;;18.46;31.02;96806.03;5075363;28;20076;-75
2021/04/25 10:34:07;;;;;;;4.40;4.00;;;;;;;18.27;30.72;96805.66;5075547;28;20049;-75
2021/04/25 10:36:50;;;;;;;4.88;4.28;;;;;;;18.23;31.21;96810.69;5075531;28;20045;-75
2021/04/25 10:39:56;;;;;;;4.50;4.07;;;;;;;18.53;31.03;96811.88;5075400;28;20036;-75
2021/04/25 10:42:32;;;;;;;5.07;4.60;;;;;;;18.61;30.90;96810.59;5075540;28;20036;-75
2021/04/25 10:44:59;;;;;;;4.50;4.07;;;;;;;18.57;30.64;96806.84;5075771;28;20476;-75
2021/04/25 10:47:32;;;;;;;5.10;4.50;;;;;;;18.56;30.39;96819.34;5075298;28;20040;-75
2021/04/25 10:50:21;;;;;;;4.60;4.20;;;;;;;18.48;30.38;96803.91;5076179;28;20380;-75
2021/04/25 10:52:52;;;;;;;4.78;4.30;;;;;;;18.63;30.68;96814.56;5071500;28;20052;-75
2021/04/25 10:55:24;;;;;;;4.28;3.97;;;;;;;18.71;30.75;96807.16;5073900;28;20032;-75
2021/04/25 10:58:04;;;;;;;5.57;3.75;;;;;;;18.91;30.70;96811.78;5075035;28;20032;-76
2021/04/25 11:02:58;;;;;;;4.40;3.85;;;;;;;18.98;30.25;96809.66;5075057;28;20032;-75
2021/04/25 11:05:39;;;;;;;4.20;3.80;;;;;;;19.03;29.59;96807.03;5074844;28;20048;-76
2021/04/25 11:08:28;;;;;;;4.05;3.65;;;;;;;19.04;29.80;96814.72;5061903;28;20033;-75
2021/04/25 11:11:00;;;;;;;4.35;3.95;;;;;;;19.22;29.91;96800.13;5068115;28;20477;-75
2021/04/25 11:13:51;;;;;;;4.03;3.63;;;;;;;19.43;28.73;96800.94;5074690;28;20040;-75
2021/04/25 11:16:17;;;;;;;4.13;3.83;;;;;;;19.58;29.35;96804.66;5074773;28;20037;-75
2021/04/25 11:18:58;;;;;;;4.70;4.25;;;;;;;19.53;28.88;96802.00;5074829;28;20028;-75
2021/04/25 11:21:35;;;;;;;3.95;3.65;;;;;;;19.37;28.85;96807.31;5074724;28;20040;-75
2021/04/25 11:24:01;;;;;;;4.65;4.25;;;;;;;19.17;29.03;96797.47;5074946;28;20496;-75
2021/04/25 11:26:44;;;;;;;4.88;4.43;;;;;;;19.20;29.15;96796.94;5075162;28;20054;-75
2021/04/25 11:29:20;;;;;;;3.92;3.63;;;;;;;19.37;28.71;96799.34;5073288;28;20041;-75
2021/04/25 11:31:46;;;;;;;3.83;3.50;;;;;;;19.49;28.62;96801.75;5074890;28;20421;-75
2021/04/25 11:34:25;;;;;;;3.28;3.00;;;;;;;19.80;28.07;96780.44;5074469;28;20043;-75
2021/04/25 11:37:19;;;;;;;4.97;3.75;;;;;;;19.87;28.06;96794.28;5074686;28;20516;-75
2021/04/25 11:39:55;;;;;;;3.93;3.53;;;;;;;19.64;26.02;96792.97;5074071;28;20401;-75
2021/04/25 11:42:26;;;;;;;3.67;3.33;;;;;;;19.45;27.30;96796.16;5074678;28;20278;-75
2021/04/25 11:44:53;;;;;;;3.03;2.72;;;;;;;19.48;27.41;96786.84;5073254;28;20036;-75